Time;durP1;ratioP1;P1;durP2;ratioP2;P2;SDS_P1;SDS_P2;PMS_P1;PMS_P2;Temp;Humidity;BMP_temperature;BMP_pressure;BME280_temperature;BME280_humidity;BME280_pressure;Samples;Min_cycle;Max_cycle;Signal;HPM_P1;HPM_P2
2023/09/12 00:00:30;;;;;;;7.13;6.03;;;;;;;25.63;59.22;101240.03;4961204;28;20102;-76
2023/09/12 00:02:56;;;;;;;8.52;6.05;;;;;;;25.63;59.33;101243.53;4961072;28;20363;-75
2023/09/12 00:05:21;;;;;;;8.30;5.95;;;;;;;25.63;59.25;101242.69;4961351;28;20122;-75
2023/09/12 00:07:46;;;;;;;8.93;5.65;;;;;;;25.63;59.23;101248.03;4961056;28;20481;-75
2023/09/12 00:10:12;;;;;;;7.55;5.68;;;;;;;25.61;59.25;101242.00;4961287;28;20118;-74
2023/09/12 00:12:37;;;;;;;8.63;5.70;;;;;;;25.62;59.56;101247.19;4992275;28;20404;-75
2023/09/12 00:15:04;;;;;;;7.60;5.75;;;;;;;25.60;59.15;101243.84;4960601;28;20042;-74
2023/09/12 00:17:29;;;;;;;7.78;6.22;;;;;;;25.60;59.34;101245.69;4959867;28;20121;-74
2023/09/12 00:19:54;;;;;;;7.53;5.70;;;;;;;25.61;59.25;101247.34;4960197;28;20525;-75
2023/09/12 00:22:20;;;;;;;7.18;5.45;;;;;;;25.60;59.25;101245.69;4960761;28;20120;-74
2023/09/12 00:24:45;;;;;;;8.35;5.63;;;;;;;25.60;59.30;101249.19;4960483;28;20030;-75
2023/09/12 00:27:10;;;;;;;8.15;6.10;;;;;;;25.60;59.19;101245.69;4961294;28;20117;-74
2023/09/12 00:29:39;;;;;;;8.98;6.32;;;;;;;25.58;59.18;101247.66;4960162;28;20035;-73
2023/09/12 00:32:04;;;;;;;7.40;5.82;;;;;;;25.58;59.02;101248.53;4975365;28;20133;-75
2023/09/12 00:34:29;;;;;;;8.18;5.50;;;;;;;25.59;59.26;101249.34;4960766;28;20484;-76
2023/09/12 00:36:55;;;;;;;10.98;6.85;;;;;;;25.58;59.08;101247.66;4959701;28;20105;-75
2023/09/12 00:39:20;;;;;;;9.23;6.20;;;;;;;25.57;59.21;101244.19;4961079;28;20093;-74
2023/09/12 00:41:45;;;;;;;7.28;5.55;;;;;;;25.56;58.95;101245.16;4960220;28;20038;-75
2023/09/12 00:44:11;;;;;;;7.97;5.68;;;;;;;25.58;59.08;101255.66;4960837;28;20043;-75
2023/09/12 00:46:37;;;;;;;7.60;5.40;;;;;;;25.57;58.94;101243.34;4960207;28;20500;-74
2023/09/12 00:49:04;;;;;;;9.07;6.63;;;;;;;25.55;58.94;101243.50;4960843;28;20411;-75
2023/09/12 00:51:31;;;;;;;6.97;5.32;;;;;;;25.56;58.90;101233.66;4960386;28;20058;-74
2023/09/12 00:53:57;;;;;;;7.85;6.15;;;;;;;25.55;58.75;101235.50;4960022;28;20035;-75
2023/09/12 00:56:23;;;;;;;8.50;5.88;;;;;;;25.54;59.05;101239.16;4961130;28;20043;-75
2023/09/12 00:58:51;;;;;;;8.68;5.82;;;;;;;25.55;58.84;101237.31;4959893;28;20365;-76
2023/09/12 01:01:17;;;;;;;9.05;6.03;;;;;;;25.53;58.76;101233.00;4991523;28;20571;-75
2023/09/12 01:03:42;;;;;;;7.32;5.75;;;;;;;25.55;58.88;101242.66;4960408;28;20041;-76
2023/09/12 01:06:08;;;;;;;7.03;5.43;;;;;;;25.52;58.64;101236.66;4960934;28;20034;-74
2023/09/12 01:08:38;;;;;;;6.93;5.75;;;;;;;25.51;58.83;101242.97;4975558;28;20038;-75
2023/09/12 01:11:04;;;;;;;7.80;5.32;;;;;;;25.52;58.91;101234.00;4960376;28;20448;-75
2023/09/12 01:13:30;;;;;;;8.02;5.45;;;;;;;25.53;58.74;101229.47;4959968;28;20046;-74
2023/09/12 01:15:55;;;;;;;9.20;6.20;;;;;;;25.52;58.86;101230.50;4960128;28;20061;-75
2023/09/12 01:18:21;;;;;;;8.00;6.10;;;;;;;25.52;58.73;101227.84;4960360;28;20038;-75
2023/09/12 01:21:12;;;;;;;7.60;6.00;;;;;;;25.51;58.69;101231.47;4991818;28;20463;-75
2023/09/12 01:23:51;;;;;;;8.38;6.05;;;;;;;25.52;58.51;101234.00;4959597;28;20062;-76
2023/09/12 01:26:56;;;;;;;9.15;6.32;;;;;;;25.50;58.56;101221.81;4959839;28;20885;-76
2023/09/12 01:29:22;;;;;;;8.43;6.18;;;;;;;25.51;58.70;101224.31;4959842;28;20054;-75
2023/09/12 01:31:50;;;;;;;7.25;5.72;;;;;;;25.49;58.57;101222.81;4991188;28;20126;-76
2023/09/12 01:34:16;;;;;;;8.70;5.88;;;;;;;25.50;58.62;101216.47;4960438;28;20065;-75
2023/09/12 01:36:41;;;;;;;7.47;5.88;;;;;;;25.50;58.66;101220.00;4960053;28;20121;-73
2023/09/12 01:39:06;;;;;;;7.80;6.10;;;;;;;25.49;58.43;101220.97;4959551;28;20362;-74
2023/09/12 01:41:35;;;;;;;8.00;6.07;;;;;;;25.49;58.72;101225.50;4962422;28;20419;-74
2023/09/12 01:44:02;;;;;;;7.90;5.80;;;;;;;25.48;58.36;101226.47;4963860;28;20038;-75
2023/09/12 01:46:29;;;;;;;8.63;5.95;;;;;;;25.47;58.37;101222.16;4978383;28;20031;-74
2023/09/12 01:48:57;;;;;;;8.73;5.57;;;;;;;25.47;58.60;101216.81;4963762;28;20078;-74
2023/09/12 01:51:24;;;;;;;8.23;6.07;;;;;;;25.47;58.50;101222.97;4962507;28;20483;-75
2023/09/12 01:53:50;;;;;;;8.75;5.60;;;;;;;25.44;58.39;101223.31;4963535;28;20239;-75
2023/09/12 01:56:17;;;;;;;7.43;5.68;;;;;;;25.46;58.17;101231.97;4963940;28;20035;-74
2023/09/12 01:58:42;;;;;;;8.00;6.22;;;;;;;25.47;58.43;101232.84;4963633;28;20912;-74
2023/09/12 02:01:08;;;;;;;8.02;5.70;;;;;;;25.46;58.32;101228.47;4994382;28;20130;-75
2023/09/12 02:03:33;;;;;;;7.75;6.43;;;;;;;25.44;58.35;101225.16;4963796;28;20381;-74
2023/09/12 02:05:59;;;;;;;7.55;6.13;;;;;;;25.45;58.34;101226.81;4963289;28;20126;-75
2023/09/12 02:08:24;;;;;;;7.10;5.47;;;;;;;25.44;58.57;101220.66;4963499;28;20038;-74
2023/09/12 02:10:49;;;;;;;8.25;5.72;;;;;;;25.44;58.02;101217.16;4963314;28;20452;-74
2023/09/12 02:13:15;;;;;;;7.25;5.38;;;;;;;25.44;58.13;101217.16;4963900;28;20063;-74
2023/09/12 02:15:40;;;;;;;8.15;5.63;;;;;;;25.44;57.98;101215.31;4962455;28;20397;-75
2023/09/12 02:18:05;;;;;;;7.93;5.97;;;;;;;25.43;58.15;101216.28;4963645;28;20407;-75
2023/09/12 02:20:32;;;;;;;7.88;5.50;;;;;;;25.44;58.40;101214.47;4963441;28;20457;-75
2023/09/12 02:22:57;;;;;;;8.02;5.40;;;;;;;25.41;58.10;101218.31;4962511;28;20038;-76
2023/09/12 02:25:22;;;;;;;6.75;5.00;;;;;;;25.43;58.03;101221.63;4963042;28;20037;-76
2023/09/12 02:27:48;;;;;;;7.00;5.10;;;;;;;25.43;57.69;101220.81;4963287;28;20411;-75
2023/09/12 02:30:13;;;;;;;6.20;4.78;;;;;;;25.42;58.30;101217.31;4963014;28;20034;-76
2023/09/12 02:32:38;;;;;;;7.78;5.05;;;;;;;25.43;58.06;101226.13;4962623;28;20039;-75
2023/09/12 02:35:04;;;;;;;7.43;5.30;;;;;;;25.42;58.16;101221.78;4962958;28;20030;-76
2023/09/12 02:37:29;;;;;;;6.63;4.70;;;;;;;25.41;57.95;101220.16;4963356;28;20039;-76
2023/09/12 02:39:55;;;;;;;7.05;4.45;;;;;;;25.39;58.00;101211.44;4963364;28;20042;-76
2023/09/12 02:42:20;;;;;;;7.10;4.55;;;;;;;25.41;58.09;101220.97;4962449;28;20041;-74
2023/09/12 02:44:45;;;;;;;6.00;4.55;;;;;;;25.41;58.08;101212.13;4963040;28;20038;-75
2023/09/12 02:47:10;;;;;;;8.10;5.10;;;;;;;25.39;58.37;101214.13;4962862;28;20035;-74
2023/09/12 02:49:36;;;;;;;6.00;4.78;;;;;;;25.41;57.84;101220.16;4962242;28;20596;-76
2023/09/12 02:52:01;;;;;;;6.25;4.78;;;;;;;25.40;58.15;101213.13;4962143;28;20035;-74
2023/09/12 02:54:27;;;;;;;6.72;5.05;;;;;;;25.40;57.88;101213.13;4962374;28;20555;-74
2023/09/12 02:56:52;;;;;;;7.18;4.80;;;;;;;25.39;57.73;101211.44;4962101;28;20046;-75
2023/09/12 02:59:18;;;;;;;7.88;4.97;;;;;;;25.39;57.99;101214.97;4945343;28;20035;-74
2023/09/12 03:01:44;;;;;;;5.95;4.57;;;;;;;25.40;57.83;101218.47;4962238;28;20026;-74
2023/09/12 03:04:09;;;;;;;7.47;5.03;;;;;;;25.38;57.76;101218.63;4962320;28;21103;-74
2023/09/12 03:06:35;;;;;;;6.55;4.50;;;;;;;25.38;57.87;101223.97;4962706;28;20300;-74
2023/09/12 03:09:00;;;;;;;5.85;4.63;;;;;;;25.37;57.86;101227.63;4962214;28;20035;-74
2023/09/12 03:11:27;;;;;;;6.57;4.80;;;;;;;25.38;57.76;101218.63;4962245;28;20812;-74
2023/09/12 03:13:53;;;;;;;6.40;4.70;;;;;;;25.38;57.83;101233.81;4961727;28;20031;-75
2023/09/12 03:16:18;;;;;;;7.25;4.35;;;;;;;25.37;57.79;101221.47;4962408;28;20047;-76
2023/09/12 03:18:43;;;;;;;7.65;4.53;;;;;;;25.37;57.55;101213.44;4961763;28;20097;-75
2023/09/12 03:21:09;;;;;;;6.30;4.78;;;;;;;25.37;57.84;101208.94;4962295;28;20097;-76
2023/09/12 03:23:34;;;;;;;7.93;4.75;;;;;;;25.37;57.71;101200.13;4961987;28;20035;-76
2023/09/12 03:26:02;;;;;;;7.93;5.00;;;;;;;25.36;57.65;101196.63;4961835;28;20031;-76
2023/09/12 03:28:27;;;;;;;6.72;4.82;;;;;;;25.37;58.00;101200.13;4962055;28;20272;-76
2023/09/12 03:31:04;;;;;;;6.32;4.78;;;;;;;25.34;57.96;101207.47;4961858;28;20031;-75
2023/09/12 03:33:29;;;;;;;6.75;4.82;;;;;;;25.35;57.58;101203.78;4961902;28;20030;-76
2023/09/12 03:35:55;;;;;;;5.95;4.15;;;;;;;25.35;57.65;101210.94;4961391;28;20041;-75
2023/09/12 03:38:20;;;;;;;5.60;4.32;;;;;;;25.34;57.53;101202.13;4976464;28;20031;-74
2023/09/12 03:40:45;;;;;;;6.50;4.53;;;;;;;25.34;57.70;101209.28;4961450;28;20063;-74
2023/09/12 03:43:10;;;;;;;6.63;4.73;;;;;;;25.34;57.10;101207.47;4961819;28;20480;-74
2023/09/12 03:45:37;;;;;;;6.10;4.70;;;;;;;25.32;57.42;101201.44;4961396;28;20264;-75
2023/09/12 03:48:03;;;;;;;6.55;5.07;;;;;;;25.33;57.87;101208.44;4961708;28;20304;-74
2023/09/12 03:50:28;;;;;;;8.43;4.70;;;;;;;25.34;57.69;101211.94;4961406;28;20097;-74
2023/09/12 03:52:53;;;;;;;7.07;4.80;;;;;;;25.34;57.22;101209.28;4960908;28;20035;-75
2023/09/12 03:55:18;;;;;;;6.35;4.95;;;;;;;25.33;57.21;101210.28;4961236;28;20324;-76
2023/09/12 03:57:44;;;;;;;5.85;4.28;;;;;;;25.33;57.41;101204.94;4961591;28;20587;-75
2023/09/12 04:00:10;;;;;;;7.70;4.55;;;;;;;25.32;57.39;101205.94;4961177;28;20509;-74
2023/09/12 04:02:35;;;;;;;7.47;4.80;;;;;;;25.31;57.71;101194.44;4961787;28;20030;-74
2023/09/12 04:05:00;;;;;;;6.00;4.10;;;;;;;25.32;57.06;101198.75;4961217;28;20031;-76
2023/09/12 04:07:25;;;;;;;6.67;4.70;;;;;;;25.31;57.26;101196.25;4961352;28;21088;-73
2023/09/12 04:09:51;;;;;;;8.27;4.43;;;;;;;25.31;57.49;101199.78;4961542;28;20279;-75
2023/09/12 04:12:16;;;;;;;6.93;4.78;;;;;;;25.31;57.10;101196.25;4961261;28;20102;-74
2023/09/12 04:14:42;;;;;;;5.85;4.05;;;;;;;25.30;57.42;101195.44;4960702;28;20053;-75
2023/09/12 04:17:08;;;;;;;7.65;5.03;;;;;;;25.29;57.29;101192.94;4961201;28;20070;-75
2023/09/12 04:19:39;;;;;;;6.63;4.57;;;;;;;25.28;57.34;101192.09;4960303;28;20081;-75
2023/09/12 04:22:04;;;;;;;6.15;4.20;;;;;;;25.29;57.64;101190.25;4960790;28;20388;-75
2023/09/12 04:24:30;;;;;;;6.13;4.68;;;;;;;25.29;57.40;101183.13;4960940;28;20074;-76
2023/09/12 04:26:55;;;;;;;7.03;4.68;;;;;;;25.30;57.50;101192.75;4961129;28;20081;-77
2023/09/12 04:29:20;;;;;;;5.80;4.30;;;;;;;25.28;57.01;101189.44;4960257;28;20034;-73
2023/09/12 04:31:46;;;;;;;6.43;4.55;;;;;;;25.29;57.25;101195.59;4959745;28;20034;-76
2023/09/12 04:34:11;;;;;;;7.30;4.53;;;;;;;25.29;57.29;101203.59;4960833;28;20494;-74
2023/09/12 04:36:36;;;;;;;5.93;4.83;;;;;;;25.29;57.37;101208.94;4960759;28;21061;-75
2023/09/12 04:39:02;;;;;;;6.63;4.93;;;;;;;25.28;57.50;101200.09;4960614;28;20268;-73
2023/09/12 04:41:27;;;;;;;5.47;3.97;;;;;;;25.28;57.19;101199.28;4960944;28;20034;-73
2023/09/12 04:43:52;;;;;;;6.03;4.50;;;;;;;25.27;57.34;101195.72;4942515;28;21091;-74
2023/09/12 04:46:17;;;;;;;7.40;4.32;;;;;;;25.28;57.41;101199.28;4955265;28;20034;-73
2023/09/12 04:48:43;;;;;;;8.40;4.50;;;;;;;25.27;57.55;101201.06;4960276;28;20031;-74
2023/09/12 04:51:09;;;;;;;6.10;4.57;;;;;;;25.26;57.56;101212.75;4943369;28;20818;-74
2023/09/12 04:53:35;;;;;;;6.20;4.53;;;;;;;25.26;57.48;101211.88;4960545;28;20062;-74
2023/09/12 04:56:01;;;;;;;5.63;4.40;;;;;;;25.24;57.38;101217.38;4959632;28;20043;-73
2023/09/12 04:58:26;;;;;;;6.90;4.53;;;;;;;25.26;57.33;101223.41;4960954;28;20522;-75
2023/09/12 05:00:52;;;;;;;5.80;4.47;;;;;;;25.25;56.97;101229.75;4960132;28;20119;-74
2023/09/12 05:03:17;;;;;;;5.55;4.28;;;;;;;25.25;56.82;101221.72;4960354;28;20039;-76
2023/09/12 05:05:46;;;;;;;5.95;4.28;;;;;;;25.25;57.22;101210.25;4960006;28;20482;-75
2023/09/12 05:08:12;;;;;;;6.60;4.20;;;;;;;25.25;57.29;101212.91;4960614;28;20402;-74
2023/09/12 05:10:38;;;;;;;5.80;4.30;;;;;;;25.24;57.16;101214.72;4960208;28;20581;-75
2023/09/12 05:13:04;;;;;;;5.57;3.95;;;;;;;25.25;57.08;101220.91;4960443;28;20027;-75
2023/09/12 05:15:29;;;;;;;7.00;4.22;;;;;;;25.24;57.40;101225.38;4960593;28;20041;-75
2023/09/12 05:17:55;;;;;;;5.85;4.15;;;;;;;25.24;57.00;101221.91;4964066;28;20047;-75
2023/09/12 05:20:20;;;;;;;5.75;4.32;;;;;;;25.23;57.13;101218.41;4964493;28;20137;-75
2023/09/12 05:22:45;;;;;;;5.93;4.22;;;;;;;25.22;57.07;101214.06;4963358;28;20027;-75
2023/09/12 05:25:11;;;;;;;6.22;4.32;;;;;;;25.23;56.78;101206.88;4964173;28;20141;-74
2023/09/12 05:27:36;;;;;;;5.82;4.47;;;;;;;25.23;57.14;101198.88;4964591;28;20459;-74
2023/09/12 05:30:02;;;;;;;6.03;3.83;;;;;;;25.22;57.00;101186.56;4964268;28;20093;-74
2023/09/12 05:32:27;;;;;;;7.40;4.03;;;;;;;25.23;57.14;101185.53;4964217;28;20058;-75
2023/09/12 05:34:52;;;;;;;6.22;4.32;;;;;;;25.23;56.93;101186.41;4962525;28;20555;-75
2023/09/12 05:37:18;;;;;;;5.90;4.40;;;;;;;25.23;56.97;101180.22;4963762;28;20044;-75
2023/09/12 05:39:44;;;;;;;6.38;4.75;;;;;;;25.22;57.23;101178.56;4962702;28;20038;-74
2023/09/12 05:42:09;;;;;;;6.40;4.30;;;;;;;25.22;57.26;101191.91;4964309;28;20373;-75
2023/09/12 05:44:34;;;;;;;6.33;4.60;;;;;;;25.21;57.34;101187.56;4979442;28;20855;-74
2023/09/12 05:47:00;;;;;;;7.22;4.90;;;;;;;25.21;57.17;101196.38;4963232;28;20281;-76
2023/09/12 05:49:25;;;;;;;6.75;4.47;;;;;;;25.22;57.10;101191.91;4964939;28;20035;-73
2023/09/12 05:51:50;;;;;;;5.40;4.20;;;;;;;25.25;56.69;101208.41;4963843;28;20042;-74
2023/09/12 05:54:16;;;;;;;5.93;4.25;;;;;;;25.29;56.91;101201.78;4963531;28;20038;-71
2023/09/12 05:56:41;;;;;;;7.85;4.20;;;;;;;25.28;56.80;101200.09;4963556;28;20511;-72
2023/09/12 05:59:07;;;;;;;5.97;4.40;;;;;;;25.27;56.71;101195.72;4963494;28;20034;-75
2023/09/12 06:01:32;;;;;;;6.05;4.10;;;;;;;25.25;57.12;101202.25;4963671;28;20587;-75
2023/09/12 06:03:57;;;;;;;7.68;4.43;;;;;;;25.23;57.38;101210.41;4963644;28;20543;-73
2023/09/12 06:06:23;;;;;;;10.10;4.20;;;;;;;25.24;57.48;101211.22;4963746;28;20098;-74
2023/09/12 06:08:48;;;;;;;6.35;4.30;;;;;;;25.22;57.39;101218.56;4963735;28;20333;-74
2023/09/12 06:11:14;;;;;;;6.28;4.32;;;;;;;25.22;57.30;101214.06;4963543;28;20098;-74
2023/09/12 06:13:39;;;;;;;6.95;4.53;;;;;;;25.23;57.37;101210.41;4963005;28;20516;-74
2023/09/12 06:16:05;;;;;;;5.72;4.18;;;;;;;25.22;57.53;101214.06;4963552;28;20558;-74
2023/09/12 06:18:31;;;;;;;6.75;4.22;;;;;;;25.23;57.59;101221.06;4963677;28;20034;-74
2023/09/12 06:20:58;;;;;;;9.25;4.88;;;;;;;25.21;57.64;101217.72;4963359;28;20478;-74
2023/09/12 06:23:23;;;;;;;6.45;4.30;;;;;;;25.23;57.90;101212.22;4962574;28;20182;-74
2023/09/12 06:25:49;;;;;;;8.52;4.70;;;;;;;25.22;57.62;101214.06;4963365;28;20534;-72
2023/09/12 06:28:28;;;;;;;6.68;4.22;;;;;;;25.24;57.90;101220.06;4959991;28;20046;-71
2023/09/12 06:30:53;;;;;;;7.32;4.60;;;;;;;25.26;57.68;101218.09;4963004;28;20097;-76
2023/09/12 06:33:19;;;;;;;9.80;4.57;;;;;;;25.25;58.00;101226.25;4963246;28;20034;-77
2023/09/12 06:35:48;;;;;;;13.48;4.65;;;;;;;25.20;58.29;101232.06;4960354;28;20105;-76
2023/09/12 06:38:14;;;;;;;8.30;5.13;;;;;;;25.20;58.52;101223.22;4961620;28;20478;-78
2023/09/12 06:40:39;;;;;;;7.75;4.85;;;;;;;25.17;58.43;101219.06;4961700;28;20074;-79
2023/09/12 06:43:04;;;;;;;9.25;5.03;;;;;;;25.20;58.36;101231.22;4961973;28;20105;-68
2023/09/12 06:45:32;;;;;;;7.40;4.63;;;;;;;25.17;58.39;101235.88;4962194;28;20108;-72
2023/09/12 06:47:58;;;;;;;9.13;4.97;;;;;;;25.17;58.44;101243.06;4961690;28;20035;-69
2023/09/12 06:50:23;;;;;;;8.40;4.90;;;;;;;25.17;58.52;101240.38;4962568;28;20102;-74
2023/09/12 06:52:48;;;;;;;9.68;5.40;;;;;;;25.19;58.46;101241.06;4962186;28;20506;-70
2023/09/12 06:55:14;;;;;;;11.53;5.37;;;;;;;25.17;58.53;101230.53;4962241;28;20046;-74
2023/09/12 06:57:40;;;;;;;7.55;5.10;;;;;;;25.21;58.34;101239.03;4962441;28;20268;-73
2023/09/12 07:00:09;;;;;;;8.45;5.20;;;;;;;25.23;58.63;101242.41;4964517;28;20412;-81
2023/09/12 07:02:51;;;;;;;6.70;5.03;;;;;;;25.25;58.70;101248.41;4963136;28;20117;-79
2023/09/12 07:05:17;;;;;;;8.95;5.10;;;;;;;25.26;58.44;101235.91;4946513;28;20118;-74
2023/09/12 07:07:42;;;;;;;11.23;5.28;;;;;;;25.29;58.09;101239.13;4977561;28;20459;-74
2023/09/12 07:10:07;;;;;;;8.30;6.00;;;;;;;25.29;58.11;101241.78;4963028;28;20046;-74
2023/09/12 07:12:34;;;;;;;10.23;4.80;;;;;;;25.37;58.10;101248.97;4962834;28;20073;-72
2023/09/12 07:14:59;;;;;;;7.90;5.03;;;;;;;25.42;58.06;101241.31;4963056;28;20085;-79
2023/09/12 07:17:28;;;;;;;10.70;5.63;;;;;;;25.44;57.77;101241.16;4963329;28;20054;-77
2023/09/12 07:19:53;;;;;;;9.88;5.45;;;;;;;25.46;57.84;101236.50;4963158;28;20572;-76
2023/09/12 07:22:18;;;;;;;11.37;5.20;;;;;;;25.49;57.70;101247.66;4978026;28;20038;-78
2023/09/12 07:24:43;;;;;;;7.32;5.13;;;;;;;25.50;57.29;101252.00;4962041;28;20273;-75
2023/09/12 07:27:09;;;;;;;8.98;4.88;;;;;;;25.51;57.10;101255.50;4962968;28;21094;-77
2023/09/12 07:29:34;;;;;;;8.85;4.82;;;;;;;25.50;57.52;101252.00;4962267;28;20377;-76
2023/09/12 07:31:59;;;;;;;8.15;4.63;;;;;;;25.51;57.37;101261.66;4961739;28;20050;-77
2023/09/12 07:34:25;;;;;;;6.85;4.60;;;;;;;25.50;57.30;101260.00;4962355;28;20383;-75
2023/09/12 07:36:54;;;;;;;9.85;4.90;;;;;;;25.50;57.42;101259.16;4961914;28;20038;-77
2023/09/12 07:39:19;;;;;;;6.90;4.63;;;;;;;25.49;57.24;101249.50;4961130;28;20496;-77
2023/09/12 07:41:45;;;;;;;9.83;4.77;;;;;;;25.48;57.34;101248.66;4944162;28;20031;-76
2023/09/12 07:44:16;;;;;;;9.32;4.70;;;;;;;25.48;57.38;101250.50;4961399;28;21282;-76
2023/09/12 07:46:43;;;;;;;7.85;4.95;;;;;;;25.47;56.94;101249.66;4962468;28;20035;-74
2023/09/12 07:49:09;;;;;;;6.75;4.50;;;;;;;25.47;57.50;101244.31;4961481;28;20031;-76
2023/09/12 07:51:35;;;;;;;7.78;4.65;;;;;;;25.48;57.41;101247.81;4962275;28;20491;-77
2023/09/12 07:54:00;;;;;;;8.52;4.63;;;;;;;25.45;57.35;101245.47;4962966;28;20526;-77
2023/09/12 07:56:26;;;;;;;6.32;4.50;;;;;;;25.46;57.40;101250.66;4944903;28;20031;-75
2023/09/12 07:58:51;;;;;;;6.80;4.70;;;;;;;25.46;57.53;101236.50;4962270;28;20112;-75
2023/09/12 08:01:17;;;;;;;6.28;4.18;;;;;;;25.46;57.50;101257.84;4944374;28;20022;-77
2023/09/12 08:03:43;;;;;;;6.57;4.35;;;;;;;25.47;57.60;101259.50;4975936;28;20042;-77
2023/09/12 08:06:09;;;;;;;6.05;4.25;;;;;;;25.45;57.39;101257.00;4943582;28;20035;-75
2023/09/12 08:08:35;;;;;;;6.72;4.53;;;;;;;25.44;57.44;101260.66;4961610;28;20708;-77
2023/09/12 08:11:01;;;;;;;6.55;4.40;;;;;;;25.46;57.41;101271.16;4961329;28;20062;-78
2023/09/12 08:13:28;;;;;;;7.15;4.35;;;;;;;25.46;57.67;101280.00;4960992;28;20198;-77
2023/09/12 08:15:54;;;;;;;8.68;4.65;;;;;;;25.44;57.56;101289.19;4976874;28;20130;-77
2023/09/12 08:18:20;;;;;;;7.85;4.43;;;;;;;25.43;57.58;101284.84;4962322;28;20077;-77
2023/09/12 08:20:45;;;;;;;7.57;4.25;;;;;;;25.44;57.41;101286.53;4961980;28;20031;-78
2023/09/12 08:23:10;;;;;;;6.40;4.80;;;;;;;25.43;57.70;101288.31;4960776;28;20105;-76
2023/09/12 08:25:36;;;;;;;6.57;4.47;;;;;;;25.44;57.61;101286.53;4962764;28;20510;-75
2023/09/12 08:28:01;;;;;;;7.10;4.75;;;;;;;25.44;57.83;101294.53;4960267;28;20034;-77
2023/09/12 08:30:29;;;;;;;6.13;4.47;;;;;;;25.44;57.67;101290.00;4961479;28;20030;-77
2023/09/12 08:32:55;;;;;;;6.53;4.20;;;;;;;25.44;57.61;101297.19;4960665;28;20045;-79
2023/09/12 08:35:21;;;;;;;8.32;4.43;;;;;;;25.42;57.86;101305.34;4961071;28;20043;-80
2023/09/12 08:37:46;;;;;;;6.38;4.30;;;;;;;25.41;57.68;101305.50;4961017;28;20042;-81
2023/09/12 08:40:12;;;;;;;6.65;4.45;;;;;;;25.41;57.81;101308.19;4961399;28;20471;-76
2023/09/12 08:42:43;;;;;;;7.57;4.78;;;;;;;25.42;58.17;101307.16;4960735;28;20349;-80
2023/09/12 08:45:13;;;;;;;6.82;3.78;;;;;;;25.41;58.02;101306.34;4961166;28;20043;-79
2023/09/12 08:47:43;;;;;;;6.72;4.00;;;;;;;25.41;57.98;101308.19;4961389;28;20037;-79
2023/09/12 08:50:14;;;;;;;6.45;4.03;;;;;;;25.41;58.01;101300.19;4961264;28;20414;-77
2023/09/12 08:52:41;;;;;;;7.18;4.28;;;;;;;25.42;58.09;101309.84;4961858;28;20161;-77
2023/09/12 08:55:07;;;;;;;5.95;3.88;;;;;;;25.41;58.15;101308.19;4961050;28;20125;-79
2023/09/12 08:57:35;;;;;;;6.28;4.32;;;;;;;25.39;58.32;101304.81;4961558;28;20126;-78
2023/09/12 09:00:05;;;;;;;6.07;4.00;;;;;;;25.40;58.31;101309.16;4961284;28;20041;-76
2023/09/12 09:02:32;;;;;;;5.60;3.50;;;;;;;25.40;58.30;101312.66;4961271;28;20392;-77
2023/09/12 09:04:58;;;;;;;6.50;3.97;;;;;;;25.40;58.33;101317.16;4961441;28;20050;-81
2023/09/12 09:07:24;;;;;;;6.40;3.83;;;;;;;25.40;58.10;101317.16;4961545;28;20035;-78
2023/09/12 09:09:53;;;;;;;5.32;3.63;;;;;;;25.40;58.29;101310.00;4960986;28;20035;-77
2023/09/12 09:12:18;;;;;;;6.35;3.80;;;;;;;25.40;58.10;101301.16;4943472;28;20046;-81
2023/09/12 09:14:44;;;;;;;6.63;3.95;;;;;;;25.37;58.45;101294.31;4960960;28;20042;-78
2023/09/12 09:17:11;;;;;;;5.82;3.83;;;;;;;25.37;58.64;101282.81;4959924;28;20050;-80
2023/09/12 09:19:44;;;;;;;5.85;3.80;;;;;;;25.35;58.46;101281.13;4960708;28;20038;-81
2023/09/12 09:22:09;;;;;;;6.40;3.83;;;;;;;25.39;58.37;101289.66;4960400;28;20031;-79
2023/09/12 09:24:35;;;;;;;6.45;4.25;;;;;;;25.38;58.36;101287.16;4960474;28;20100;-76
2023/09/12 09:27:00;;;;;;;6.65;4.53;;;;;;;25.38;58.26;101273.81;4960103;28;20041;-79
2023/09/12 09:29:31;;;;;;;6.38;4.32;;;;;;;25.39;58.49;101272.81;4960834;28;20038;-79
2023/09/12 09:31:58;;;;;;;7.00;4.15;;;;;;;25.39;58.52;101272.81;4959594;28;20038;-78
2023/09/12 09:34:24;;;;;;;6.57;4.47;;;;;;;25.39;58.61;101280.81;4959497;28;20031;-78
2023/09/12 09:36:51;;;;;;;6.97;4.53;;;;;;;25.38;58.41;101273.81;4943799;28;20034;-79
2023/09/12 09:39:25;;;;;;;7.68;5.03;;;;;;;25.38;58.59;101284.50;4961114;28;20455;-78
2023/09/12 09:41:53;;;;;;;;;;;;;;;25.40;58.72;101283.31;4961133;28;20085;-78
2023/09/12 09:44:22;;;;;;;7.03;4.32;;;;;;;25.43;58.51;101282.16;4960983;28;20371;-78
2023/09/12 09:46:52;;;;;;;7.53;4.90;;;;;;;25.40;58.48;101275.31;4961342;28;20049;-79
2023/09/12 09:49:19;;;;;;;7.22;4.68;;;;;;;25.40;58.43;101269.97;4961774;28;20073;-81
2023/09/12 09:51:45;;;;;;;7.70;5.15;;;;;;;25.40;58.53;101269.16;4960556;28;20043;-75
2023/09/12 09:54:15;;;;;;;8.48;5.13;;;;;;;25.41;58.50;101274.31;4958351;28;20038;-78
2023/09/12 09:57:06;;;;;;;7.18;5.18;;;;;;;25.40;58.89;101272.66;4961133;28;20491;-84
2023/09/12 09:59:34;;;;;;;8.43;5.53;;;;;;;25.39;59.06;101275.47;4962872;28;20090;-83
2023/09/12 10:02:00;;;;;;;9.27;5.03;;;;;;;25.39;59.33;101280.81;4962070;28;20200;-79
2023/09/12 10:04:27;;;;;;;7.68;4.50;;;;;;;25.38;59.12;101279.16;4947008;28;20498;-82
2023/09/12 10:06:56;;;;;;;8.73;5.25;;;;;;;25.38;58.88;101284.50;4946911;28;20081;-78
2023/09/12 10:09:26;;;;;;;9.13;4.40;;;;;;;25.38;59.15;101276.50;4963649;28;20058;-71
2023/09/12 10:11:51;;;;;;;10.43;4.45;;;;;;;25.39;59.21;101278.13;4947991;28;20066;-78
2023/09/12 10:14:19;;;;;;;8.80;5.53;;;;;;;25.41;59.35;101270.84;4967499;28;20066;-78
2023/09/12 10:16:48;;;;;;;8.73;5.90;;;;;;;25.41;59.19;101268.16;4932077;28;20135;-76
2023/09/12 10:19:19;;;;;;;10.00;5.30;;;;;;;25.43;59.09;101272.31;4977715;28;20128;-77
2023/09/12 10:22:27;;;;;;;12.68;5.47;;;;;;;25.50;58.87;101264.50;4963618;28;20035;-85
2023/09/12 10:24:54;;;;;;;7.82;5.50;;;;;;;25.53;58.89;101267.69;4964711;28;20062;-84
2023/09/12 10:27:21;;;;;;;8.38;4.93;;;;;;;25.56;58.92;101269.19;4964084;28;20122;-84
2023/09/12 10:29:49;;;;;;;7.43;4.88;;;;;;;25.56;58.68;101258.50;4963198;28;20475;-84
2023/09/12 10:32:15;;;;;;;7.88;5.38;;;;;;;25.60;59.06;101251.03;4964054;28;20030;-78
2023/09/12 10:34:45;;;;;;;7.47;4.90;;;;;;;25.59;58.95;101250.16;4963040;28;20034;-78
2023/09/12 10:37:14;;;;;;;9.20;5.40;;;;;;;25.62;58.73;101262.38;4963525;28;20088;-76
2023/09/12 10:39:42;;;;;;;8.73;5.00;;;;;;;25.62;58.74;101259.69;4963913;28;20039;-76
2023/09/12 10:42:09;;;;;;;10.35;5.88;;;;;;;25.59;59.15;101263.50;4962403;28;20180;-77
2023/09/12 10:44:34;;;;;;;10.93;7.03;;;;;;;25.57;59.11;101262.84;4966443;28;20102;-78
2023/09/12 10:47:01;;;;;;;16.95;11.40;;;;;;;25.58;59.20;101269.88;4962812;28;20114;-79
2023/09/12 10:49:27;;;;;;;19.65;12.90;;;;;;;25.58;58.31;101263.69;4963458;28;20117;-80
2023/09/12 10:51:56;;;;;;;21.13;13.55;;;;;;;25.56;58.08;101263.03;4963160;28;20035;-74
2023/09/12 10:54:35;;;;;;;19.45;12.40;;;;;;;25.55;58.69;101261.34;4962626;28;20031;-78
2023/09/12 10:57:05;;;;;;;17.75;12.40;;;;;;;25.55;58.58;101262.19;4962230;28;20508;-79
2023/09/12 10:59:37;;;;;;;16.55;11.82;;;;;;;25.53;58.57;101269.50;4963312;28;20400;-79
2023/09/12 11:02:31;;;;;;;17.75;12.02;;;;;;;25.51;59.35;101271.50;4962661;28;20034;-80
2023/09/12 11:05:01;;;;;;;16.80;11.80;;;;;;;25.51;59.24;101274.19;4962503;28;20093;-79
2023/09/12 11:07:38;;;;;;;16.60;12.02;;;;;;;25.48;59.35;101266.50;4962524;28;20064;-78
2023/09/12 11:10:12;;;;;;;16.80;11.52;;;;;;;25.44;59.05;101263.31;4962386;28;20524;-77
2023/09/12 11:12:38;;;;;;;17.42;11.75;;;;;;;25.42;59.04;101256.47;4962446;28;20041;-79
2023/09/12 11:15:08;;;;;;;16.20;10.80;;;;;;;25.39;59.15;101254.13;4962259;28;20203;-77
2023/09/12 11:18:05;;;;;;;14.40;10.43;;;;;;;25.37;58.55;101248.13;4962510;28;20508;-78
2023/09/12 11:20:53;;;;;;;13.75;9.65;;;;;;;25.37;58.59;101251.63;4947678;28;20037;-78
2023/09/12 11:23:19;;;;;;;13.40;9.63;;;;;;;25.38;59.85;101255.16;4962125;28;20039;-79